Latest Weather Observations for Moorabbin Airport

IDV60801

Issued at 3:02 pm EDT Sunday 11 December 2016 (issued every 30 minutes, with the page automatically refreshed every 10 minutes)

About weather observations | Map of weather stations | Latest weather observations for VIC | Other Formats
Station Details ID: 086077 Name: MOORABBIN AIRPORT Lat: -37.98 Lon: 145.10 Height: 12.1 m
Data from the previous 72 hours. | See also: Recent months at Moorabbin Airport
Date/Time
EDT
Temp
°C
App
Temp
°C
Dew
Point
°C
Rel
Hum
%
Delta-T
°C
Wind Press
QNH
hPa
Press
MSL
hPa
Rain since
9am
mm
Dir  Spd
km/h
Gust
km/h
Spd
kts
Gust
kts
11/03:00pm 18.6 13.9 10.7 60 4.2 SW 26 33 14 18 1022.4 1022.4 0.0
11/02:30pm 18.4 13.4 9.7 57 4.6 SSW 26 35 14 19 1022.6 1022.6 0.0
11/02:00pm 18.3 13.3 9.6 57 4.6 SW 26 33 14 18 1023.0 1023.0 0.0
11/01:30pm 19.1 15.1 10.6 58 4.6 SSW 22 32 12 17 1023.3 1023.3 0.0
11/01:00pm 17.8 14.0 9.7 59 4.2 SW 20 30 11 16 1023.5 1023.5 0.0
11/12:30pm 17.9 13.9 10.5 62 4.0 SW 22 32 12 17 1023.9 1023.9 0.0
11/12:00pm 17.6 14.0 10.0 61 4.0 SSW 19 28 10 15 1024.0 1024.0 0.0
11/11:30am 17.5 14.1 10.4 63 3.8 SSW 19 28 10 15 1024.1 1024.1 0.0
11/11:00am 17.4 14.0 7.7 53 4.9 ESE 15 22 8 12 1024.2 1024.2 0.0
11/10:30am 17.1 14.6 9.8 62 3.8 SSE 13 22 7 12 1024.4 1024.4 0.0
11/10:00am 15.7 11.9 8.9 64 3.5 SSE 19 24 10 13 1024.4 1024.4 0.0
11/09:30am 15.6 12.9 9.1 65 3.3 SSE 13 20 7 11 1024.3 1024.3 0.0
11/09:00am 14.7 12.5 9.3 70 2.8 SE 11 17 6 9 1024.6 1024.6 0.2
11/08:30am 13.6 11.2 10.0 79 1.9 SE 13 19 7 10 1024.4 1024.4 0.2
11/08:00am 13.9 11.3 10.7 81 1.7 SE 15 20 8 11 1024.0 1024.0 0.2
11/07:30am 13.2 11.3 10.4 83 1.5 ESE 11 15 6 8 1023.8 1023.8 0.2
11/07:23am 13.1 11.2 10.5 84 1.4 SE 11 15 6 8 1023.8 1023.8 0.2
11/07:00am 12.9 10.6 10.3 84 1.3 SSE 13 17 7 9 1023.5 1023.5 0.2
11/06:38am 13.0 11.0 10.2 83 1.4 SE 11 13 6 7 1023.4 1023.4 0.2
11/06:30am 12.8 10.7 9.8 82 1.5 SSE 11 15 6 8 1023.2 1023.2 0.2
11/06:00am 13.1 11.0 9.7 80 1.7 ESE 11 15 6 8 1023.0 1023.0 0.2
11/05:30am 13.2 10.7 9.6 79 1.8 ESE 13 15 7 8 1022.8 1022.8 0.2
11/05:00am 13.3 10.4 9.5 78 1.9 ESE 15 17 8 9 1022.7 1022.7 0.2
11/04:30am 13.5 11.1 9.9 79 1.9 SSE 13 17 7 9 1022.5 1022.5 0.2
11/04:00am 13.4 11.1 10.4 82 1.6 S 13 19 7 10 1022.5 1022.5 0.2
11/03:30am 13.7 11.6 9.9 78 2.0 ESE 11 17 6 9 1022.6 1022.6 0.2
11/03:00am 13.8 11.3 9.8 77 2.1 ESE 13 15 7 8 1022.7 1022.7 0.2
11/02:30am 14.0 12.7 9.8 76 2.2 ESE 7 11 4 6 1023.0 1023.0 0.2
11/02:00am 13.7 12.3 9.7 77 2.0 SE 7 13 4 7 1023.2 1023.2 0.2
11/01:30am 14.2 12.9 9.8 75 2.3 SSE 7 13 4 7 1023.4 1023.4 0.2
11/01:00am 14.3 12.1 9.3 72 2.5 SE 11 17 6 9 1023.6 1023.6 0.2
11/12:30am 14.5 12.3 9.5 72 2.6 SSE 11 17 6 9 1023.7 1023.7 0.2
11/12:00am 14.5 11.9 9.3 71 2.6 SSE 13 17 7 9 1023.9 1023.9 0.2
 
Date/Time
EDT
Temp
°C
App
Temp
°C
Dew
Point
°C
Rel
Hum
%
Delta-T
°C
Wind Press
QNH
hPa
Press
MSL
hPa
Rain since
9am
mm
Dir  Spd
km/h
Gust
km/h
Spd
kts
Gust
kts
10/11:30pm 14.5 11.8 9.1 70 2.8 SE 13 17 7 9 1023.8 1023.8 0.2
10/11:00pm 14.9 12.3 9.3 69 2.9 SSE 13 17 7 9 1023.9 1023.9 0.2
10/10:30pm 14.7 11.6 8.9 68 2.9 SSE 15 17 8 9 1023.9 1023.9 0.2
10/10:00pm 14.9 12.2 9.1 68 3.0 SSE 13 17 7 9 1023.7 1023.7 0.2
10/09:30pm 15.0 12.0 9.1 68 3.0 S 15 19 8 10 1023.6 1023.6 0.2
10/09:00pm 15.1 11.3 9.2 68 3.0 SSW 19 28 10 15 1023.2 1023.2 0.2
10/08:30pm 15.2 12.3 9.6 69 2.9 SSW 15 22 8 12 1023.1 1023.1 0.2
10/08:00pm 15.5 11.8 9.4 67 3.1 SSW 19 26 10 14 1022.9 1022.9 0.2
10/07:30pm 16.1 12.7 9.3 64 3.5 SSW 17 22 9 12 1022.8 1022.8 0.2
10/07:00pm 16.4 13.0 9.1 62 3.8 S 17 24 9 13 1022.5 1022.5 0.2
10/06:30pm 16.7 14.2 8.1 57 4.4 SSW 11 17 6 9 1022.2 1022.2 0.2
10/06:00pm 16.7 13.8 8.1 57 4.3 SSW 13 19 7 10 1022.2 1022.2 0.2
10/05:30pm 17.2 14.4 8.4 56 4.5 SW 13 22 7 12 1022.3 1022.3 0.2
10/05:00pm 16.8 13.0 7.7 55 4.6 S 17 22 9 12 1022.5 1022.5 0.2
10/04:30pm 17.1 13.0 8.0 55 4.6 SSW 19 24 10 13 1022.7 1022.7 0.2
10/04:00pm 17.6 14.8 8.5 55 4.7 S 13 24 7 13 1022.4 1022.4 0.2
10/03:30pm 17.2 14.7 8.1 55 4.6 SSW 11 20 6 11 1022.9 1022.9 0.2
10/03:00pm 17.3 14.0 8.2 55 4.6 SW 15 20 8 11 1023.2 1023.2 0.2
10/02:30pm 17.1 13.7 7.7 54 4.7 SW 15 20 8 11 1023.4 1023.4 0.2
10/02:00pm 16.7 12.7 8.4 58 4.2 SSW 19 28 10 15 1023.7 1023.7 0.2
10/01:30pm 15.7 11.4 7.2 57 4.2 SW 19 28 10 15 1024.1 1024.1 0.2
10/01:00pm 15.5 11.6 7.0 57 4.2 SW 17 24 9 13 1024.0 1024.0 0.0
10/12:30pm 15.3 11.4 7.3 59 4.0 SW 17 24 9 13 1024.1 1024.1 0.0
10/12:00pm 14.7 10.9 7.5 62 3.5 SSW 17 26 9 14 1024.1 1024.1 0.0
10/11:30am 15.0 12.4 7.8 62 3.6 SW 11 17 6 9 1024.0 1024.0 0.0
10/11:00am 14.4 10.1 7.2 62 3.5 SW 19 26 10 14 1024.2 1024.2 0.0
10/10:30am 14.6 10.4 7.6 63 3.5 SW 19 24 10 13 1024.2 1024.2 0.0
10/10:00am 14.4 11.0 7.5 63 3.4 SW 15 20 8 11 1024.1 1024.1 0.0
10/09:30am 14.1 10.6 7.2 63 3.4 SW 15 20 8 11 1024.1 1024.1 0.0
10/09:00am 13.8 11.8 7.1 64 3.2 W 7 11 4 6 1024.0 1024.0 0.2
10/08:30am 13.4 11.5 7.4 67 2.9 ENE 7 11 4 6 1023.8 1023.8 0.2
10/08:00am 13.0 10.7 7.5 69 2.7 ESE 9 13 5 7 1023.7 1023.7 0.2
10/07:30am 12.8 9.8 7.7 71 2.5 ESE 13 15 7 8 1023.3 1023.3 0.2
10/07:00am 13.0 10.3 7.5 69 2.7 SW 11 15 6 8 1022.8 1022.8 0.2
10/06:30am 12.8 10.1 7.3 69 2.7 SW 11 19 6 10 1022.4 1022.4 0.2
10/06:00am 12.7 10.0 7.4 70 2.6 WSW 11 15 6 8 1022.1 1022.1 0.2
10/05:30am 12.5 10.2 7.6 72 2.4 W 9 13 5 7 1021.8 1021.8 0.2
10/05:00am 12.4 9.8 7.9 74 2.2 WSW 11 15 6 8 1021.8 1021.8 0.2
10/04:30am 12.3 8.6 8.0 75 2.1 SW 17 26 9 14 1021.7 1021.7 0.2
10/04:00am 12.5 9.1 7.8 73 2.3 SW 15 20 8 11 1021.5 1021.5 0.2
10/03:30am 12.8 10.2 7.7 71 2.5 WSW 11 17 6 9 1021.5 1021.5 0.2
10/03:00am 12.5 9.5 7.8 73 2.3 SSW 13 20 7 11 1021.5 1021.5 0.2
10/02:30am 12.6 8.5 7.9 73 2.3 WSW 19 24 10 13 1021.6 1021.6 0.2
10/02:00am 13.2 9.9 7.9 70 2.6 WSW 15 22 8 12 1021.7 1021.7 0.2
10/01:30am 13.2 9.8 7.6 69 2.7 SSW 15 20 8 11 1021.9 1021.9 0.2
10/01:00am 13.1 9.3 7.5 69 2.7 SSW 17 22 9 12 1022.1 1022.1 0.2
10/12:30am 13.2 8.9 7.0 66 3.0 SW 19 28 10 15 1022.3 1022.3 0.2
10/12:00am 13.6 9.2 6.7 63 3.3 SSW 19 24 10 13 1022.3 1022.3 0.2
 
Date/Time
EDT
Temp
°C
App
Temp
°C
Dew
Point
°C
Rel
Hum
%
Delta-T
°C
Wind Press
QNH
hPa
Press
MSL
hPa
Rain since
9am
mm
Dir  Spd
km/h
Gust
km/h
Spd
kts
Gust
kts
09/11:30pm 13.8 9.0 5.4 57 3.9 SSW 20 28 11 15 1022.4 1022.4 0.2
09/11:00pm 13.7 9.2 7.0 64 3.2 SSW 20 28 11 15 1022.3 1022.3 0.2
09/10:30pm 13.8 9.4 7.6 66 3.0 SSW 20 30 11 16 1022.2 1022.2 0.2
09/10:00pm 13.6 9.9 7.8 68 2.8 SSW 17 30 9 16 1022.1 1022.1 0.2
09/09:30pm 13.5 8.3 7.1 65 3.1 SSW 24 33 13 18 1021.8 1021.8 0.2
09/09:00pm 13.3 8.3 8.2 71 2.5 SSW 24 35 13 19 1021.7 1021.7 0.2
09/08:30pm 13.7 8.6 7.7 67 3.0 SSW 24 33 13 18 1021.3 1021.3 0.2
09/08:00pm 13.9 8.8 7.7 66 3.0 SSW 24 41 13 22 1021.1 1021.1 0.2
09/07:30pm 13.9 7.9 7.0 63 3.4 SSW 28 39 15 21 1020.8 1020.8 0.2
09/07:00pm 14.6 8.7 7.6 63 3.5 SSW 28 41 15 22 1020.4 1020.4 0.2
09/06:30pm 14.9 9.0 7.7 62 3.6 SSW 28 41 15 22 1019.8 1019.8 0.2
09/06:00pm 15.5 9.3 6.2 54 4.5 SSW 28 41 15 22 1019.6 1019.6 0.2
09/05:30pm 14.6 8.1 6.7 59 3.8 SSW 30 41 16 22 1019.6 1019.6 0.2
09/05:00pm 15.7 9.3 7.0 56 4.3 SSW 30 43 16 23 1019.3 1019.3 0.2
09/04:30pm 15.3 8.5 7.1 58 4.0 SSW 32 46 17 25 1019.3 1019.3 0.2
09/04:00pm 15.8 9.3 8.1 60 3.9 SSW 32 44 17 24 1019.3 1019.3 0.2
09/03:30pm 16.0 9.7 5.6 50 5.0 SSW 28 41 15 22 1019.1 1019.1 0.2
09/03:00pm 16.0 10.4 7.2 56 4.3 SW 26 39 14 21 1019.1 1019.1 0.2
09/02:30pm 15.1 8.9 7.9 62 3.6 SSW 30 41 16 22 1019.1 1019.1 0.2
09/02:00pm 15.4 9.2 6.2 54 4.4 SW 28 39 15 21 1018.9 1018.9 0.2
09/01:30pm 14.4 7.8 6.0 57 4.0 SW 30 43 16 23 1018.8 1018.8 0.2
09/01:10pm 14.6 8.0 7.6 63 3.5 SW 32 52 17 28 1018.7 1018.7 0.2
09/01:00pm 15.7 10.1 7.2 57 4.2 SW 26 35 14 19 1018.6 1018.6 0.2
09/12:30pm 15.2 8.5 5.4 52 4.7 SW 30 41 16 22 1018.3 1018.3 0.2
09/12:00pm 14.5 8.2 5.8 56 4.1 SSW 28 39 15 21 1018.0 1018.0 0.2
09/11:30am 15.3 8.4 6.6 56 4.2 SW 32 43 17 23 1017.5 1017.5 0.2
09/11:00am 14.0 7.2 5.1 55 4.2 SW 30 43 16 23 1017.1 1017.1 0.2
09/10:39am 12.1 6.1 7.0 71 2.4 SW 28 50 15 27 1016.9 1016.9 0.0
09/10:30am 12.4 8.2 8.1 75 2.1 SW 20 41 11 22 1016.6 1016.6 0.0
09/10:19am 12.3 6.3 7.0 70 2.5 WSW 28 50 15 27 1016.5 1016.5 0.0
09/10:00am 14.2 6.6 5.8 57 4.0 SW 35 50 19 27 1016.3 1016.3 0.0
09/09:52am 14.3 7.4 6.4 59 3.8 SW 32 50 17 27 1016.1 1016.1 0.0
09/09:30am 13.1 7.1 7.1 67 2.9 WSW 28 41 15 22 1015.8 1015.8 0.0
09/09:00am 12.6 7.5 7.5 71 2.5 WSW 24 33 13 18 1015.4 1015.4 9.8
09/08:30am 12.9 8.4 7.1 68 2.8 WSW 20 32 11 17 1014.6 1014.6 9.8
09/08:00am 12.1 6.9 7.2 72 2.4 WSW 24 33 13 18 1014.2 1014.2 9.8
09/07:30am 12.1 7.1 6.6 69 2.6 SW 22 35 12 19 1013.5 1013.5 9.8
09/07:00am 11.6 6.0 7.1 74 2.2 WSW 26 41 14 22 1013.0 1013.0 9.8
09/06:30am 11.1 6.7 7.4 78 1.8 WSW 20 30 11 16 1012.3 1012.3 9.6
09/06:00am 10.9 5.6 6.8 76 1.9 WSW 24 44 13 24 1011.6 1011.6 9.4
09/05:30am 10.5 3.7 6.8 78 1.7 WSW 32 54 17 29 1011.1 1011.1 9.2
09/05:22am 11.2 5.2 6.9 75 2.0 WSW 28 54 15 29 1011.0 1011.0 9.0
09/05:00am 11.6 5.9 6.5 71 2.4 WSW 26 43 14 23 1010.6 1010.6 8.8
09/04:37am 11.4 5.2 6.3 71 2.4 WSW 28 46 15 25 1010.4 1010.4 8.6
09/04:30am 11.4 6.0 6.5 72 2.3 WSW 24 41 13 22 1010.3 1010.3 8.6
09/04:06am 11.6 5.4 6.3 70 2.5 WSW 28 50 15 27 1009.9 1009.9 8.4
09/04:00am 11.4 5.6 6.1 70 2.5 W 26 43 14 23 1009.8 1009.8 8.4
09/03:30am 11.3 5.0 5.6 68 2.6 WSW 28 39 15 21 1009.3 1009.3 8.4
09/03:08am 10.8 4.7 6.6 75 2.0 WSW 28 46 15 25 1009.1 1009.1 8.4
09/03:00am 11.0 4.1 6.4 73 2.2 WSW 32 46 17 25 1009.4 1009.4 8.2
09/02:34am 12.9 6.6 5.8 62 3.3 WSW 28 46 15 25 1008.9 1008.9 7.8
09/02:30am 12.8 6.9 5.7 62 3.3 WSW 26 43 14 23 1008.7 1008.7 7.8
09/02:00am 12.9 6.7 6.3 64 3.1 WSW 28 43 15 23 1008.8 1008.8 7.8
09/01:30am 13.2 6.7 6.3 63 3.3 WSW 30 44 16 24 1008.6 1008.6 7.8
09/01:17am 13.4 7.3 6.7 64 3.2 WSW 28 48 15 26 1008.5 1008.5 7.8
09/01:00am 13.1 7.7 6.5 64 3.2 WSW 24 37 13 20 1008.4 1008.4 7.8
09/12:30am 13.4 7.9 7.6 68 2.8 WSW 26 39 14 21 1008.4 1008.4 7.8
09/12:00am 13.4 7.4 7.2 66 3.0 WSW 28 39 15 21 1008.3 1008.3 7.8
 
Date/Time
EDT
Temp
°C
App
Temp
°C
Dew
Point
°C
Rel
Hum
%
Delta-T
°C
Wind Press
QNH
hPa
Press
MSL
hPa
Rain since
9am
mm
Dir  Spd
km/h
Gust
km/h
Spd
kts
Gust
kts
08/11:30pm 13.7 8.4 7.0 64 3.3 WSW 24 39 13 21 1007.9 1007.9 7.8
08/11:00pm 13.9 8.8 7.7 66 3.1 WSW 24 39 13 21 1007.5 1007.5 7.8
08/10:30pm 13.6 7.7 10.6 82 1.6 SW 32 48 17 26 1007.1 1007.1 7.8
08/10:29pm 13.6 7.7 10.6 82 1.6 SW 32 48 17 26 1007.1 1007.1 7.8
08/10:12pm 13.0 5.9 9.6 80 1.7 SW 37 56 20 30 1006.7 1006.7 7.8
08/10:00pm 13.3 6.3 9.9 80 1.8 SW 37 56 20 30 1006.2 1006.2 7.2
08/09:41pm 14.4 7.3 9.6 73 2.5 SW 37 57 20 31 1005.7 1005.7 7.2
08/09:30pm 14.2 7.7 10.4 78 2.0 SW 35 52 19 28 1005.6 1005.6 7.2
08/09:04pm 13.9 8.0 10.3 79 1.9 SW 32 50 17 27 1004.9 1004.9 7.2
08/09:00pm 13.9 7.3 9.9 77 2.1 SW 35 50 19 27 1004.9 1004.9 7.2
08/08:30pm 14.4 7.8 10.0 75 2.3 SW 35 56 19 30 1004.1 1004.1 7.0
08/08:25pm 14.3 8.5 10.7 79 1.9 SW 32 56 17 30 1004.0 1004.0 7.0
08/08:21pm 14.2 9.3 11.4 83 1.5 SW 28 48 15 26 1004.0 1004.0 7.0
08/08:06pm 14.1 8.2 10.5 79 1.9 WSW 32 46 17 25 1003.6 1003.6 6.6
08/08:03pm 14.9 9.6 9.7 71 2.7 W 28 46 15 25 1003.6 1003.6 6.0
08/08:00pm 16.2 11.0 10.3 68 3.1 W 28 41 15 22 1003.3 1003.3 5.8
08/07:30pm 17.0 10.9 9.7 62 3.8 W 32 50 17 27 1002.5 1002.5 5.8
08/07:22pm 16.9 11.2 9.8 63 3.7 W 30 50 16 27 1002.3 1002.3 5.8
08/07:00pm 16.8 11.3 10.6 67 3.3 W 30 44 16 24 1001.9 1001.9 5.8
08/06:35pm 17.2 11.1 9.6 61 4.0 WNW 32 50 17 27 1001.1 1001.1 5.8
08/06:30pm 17.5 12.1 9.4 59 4.2 WNW 28 44 15 24 1001.1 1001.1 5.8
08/06:00pm 18.2 11.8 8.7 54 4.9 W 32 57 17 31 1000.3 1000.3 5.8
08/05:30pm 19.1 11.4 8.7 51 5.4 W 39 61 21 33 999.5 999.5 5.8
08/05:16pm 20.1 13.9 7.8 45 6.3 W 30 54 16 29 999.1 999.1 5.8
08/05:00pm 21.0 15.4 8.6 45 6.6 W 28 44 15 24 999.0 999.0 5.8
08/04:30pm 20.7 13.1 9.0 47 6.2 W 39 59 21 32 998.7 998.7 5.8
08/04:00pm 20.9 12.7 8.2 44 6.7 W 41 59 22 32 998.3 998.3 5.8
08/03:30pm 21.9 15.5 8.4 42 7.1 W 32 57 17 31 998.1 998.1 5.8

Other Formats:

Comma delimited format used in spreadsheet applications
http://www.bom.gov.au/fwo/IDV60801/IDV60801.94870.axf

JavaScript Object Notation format (JSON) in row-major order
http://www.bom.gov.au/fwo/IDV60801/IDV60801.94870.json